Private Wetterstation Sandau
Wetterdaten: Woche 10.09.12 - 16.09.12 (KW37)
Datum Zeit Temp. A. Feuchte A. Luftdruck Regen Wind Richtung Taupunkt Windchill
10.09.2012 00:00 17,3 C 83 % 1014,7 hPa 0,0 l/m 4,5 km/h (1 Bft) SO 14,3 C 17,3 C
10.09.2012 01:00 16,8 C 84 % 1014,1 hPa 0,0 l/m 4,0 km/h (1 Bft) O-SO 14,1 C 16,8 C
10.09.2012 02:00 16,2 C 86 % 1013,6 hPa 0,0 l/m 3,1 km/h (1 Bft) SO 13,8 C 16,2 C
10.09.2012 03:00 15,5 C 87 % 1013,6 hPa 0,0 l/m 1,3 km/h (1 Bft) SO 13,3 C 15,5 C
10.09.2012 04:00 15,0 C 88 % 1013,5 hPa 0,0 l/m 0,2 km/h (0 Bft) O-SO 13,0 C 15,0 C
10.09.2012 05:00 14,3 C 88 % 1013,5 hPa 0,0 l/m 1,0 km/h (0 Bft) SO 12,4 C 14,3 C
10.09.2012 06:00 14,4 C 89 % 1013,3 hPa 0,0 l/m 3,2 km/h (1 Bft) SO 12,6 C 14,4 C
10.09.2012 07:00 15,2 C 88 % 1013,7 hPa 0,0 l/m 1,1 km/h (0 Bft) S-SO 13,2 C 15,2 C
10.09.2012 08:00 17,2 C 85 % 1014,0 hPa 0,0 l/m 2,4 km/h (1 Bft) S 14,6 C 17,2 C
10.09.2012 09:00 20,0 C 76 % 1014,2 hPa 0,0 l/m 2,3 km/h (1 Bft) W-SW 15,6 C 20,0 C
10.09.2012 10:00 22,5 C 64 % 1014,5 hPa 0,0 l/m 3,5 km/h (1 Bft) W-SW 15,4 C 22,5 C
10.09.2012 11:00 25,0 C 55 % 1014,6 hPa 0,0 l/m 5,4 km/h (1 Bft) S-SW 15,2 C 25,0 C
10.09.2012 12:00 27,1 C 46 % 1014,3 hPa 0,0 l/m 6,7 km/h (2 Bft) W-SW 14,4 C 27,1 C
10.09.2012 13:00 28,9 C 35 % 1014,2 hPa 0,0 l/m 6,4 km/h (2 Bft) W-SW 11,9 C 28,9 C
10.09.2012 14:00 29,4 C 32 % 1014,0 hPa 0,0 l/m 9,8 km/h (2 Bft) W-SW 10,8 C 29,4 C
10.09.2012 15:00 30,2 C 30 % 1013,7 hPa 0,0 l/m 8,9 km/h (2 Bft) W-SW 10,6 C 30,2 C
10.09.2012 16:00 30,1 C 31 % 1013,5 hPa 0,0 l/m 5,7 km/h (1 Bft) S 11,2 C 30,1 C
10.09.2012 17:00 29,1 C 34 % 1013,4 hPa 0,0 l/m 4,6 km/h (1 Bft) S-SW 11,4 C 29,1 C
10.09.2012 18:00 28,2 C 34 % 1013,3 hPa 0,0 l/m 2,3 km/h (1 Bft) S 10,8 C 28,2 C
10.09.2012 19:00 24,8 C 40 % 1013,3 hPa 0,0 l/m 0,3 km/h (0 Bft) W 10,2 C 24,8 C
10.09.2012 20:00 21,7 C 50 % 1013,7 hPa 0,0 l/m 0,0 km/h (0 Bft) S-SO 10,7 C 21,7 C
10.09.2012 21:00 20,4 C 53 % 1013,9 hPa 0,0 l/m 1,2 km/h (1 Bft) S-SO 10,4 C 20,4 C
10.09.2012 22:00 19,2 C 57 % 1014,0 hPa 0,0 l/m 2,5 km/h (1 Bft) S-SO 10,5 C 19,2 C
10.09.2012 23:00 18,6 C 60 % 1014,1 hPa 0,0 l/m 1,2 km/h (1 Bft) S-SO 10,6 C 18,6 C
11.09.2012 00:00 17,8 C 64 % 1013,9 hPa 0,0 l/m 0,7 km/h (0 Bft) S-SO 10,8 C 17,8 C
11.09.2012 01:00 17,0 C 67 % 1013,7 hPa 0,0 l/m 0,1 km/h (0 Bft) S-SO 10,7 C 17,0 C
11.09.2012 02:00 16,3 C 70 % 1013,5 hPa 0,0 l/m 0,3 km/h (0 Bft) S-SO 10,7 C 16,3 C
11.09.2012 03:00 16,0 C 70 % 1013,2 hPa 0,0 l/m 1,1 km/h (0 Bft) SO 10,7 C 16,0 C
11.09.2012 04:00 15,1 C 74 % 1012,8 hPa 0,0 l/m 1,3 km/h (1 Bft) SO 10,6 C 15,1 C
11.09.2012 05:00 14,8 C 76 % 1012,4 hPa 0,0 l/m 0,5 km/h (0 Bft) SO 10,5 C 14,8 C
11.09.2012 06:00 14,4 C 77 % 1012,3 hPa 0,0 l/m 0,0 km/h (0 Bft) N 10,4 C 14,4 C
11.09.2012 07:00 15,2 C 75 % 1012,3 hPa 0,0 l/m 2,0 km/h (1 Bft) SO 10,9 C 15,2 C
11.09.2012 08:00 17,5 C 70 % 1011,7 hPa 0,0 l/m 3,9 km/h (1 Bft) SO 12,0 C 17,5 C
11.09.2012 09:00 20,9 C 62 % 1011,2 hPa 0,0 l/m 4,8 km/h (1 Bft) S-SO 13,4 C 20,9 C
11.09.2012 10:00 23,3 C 56 % 1011,2 hPa 0,0 l/m 6,4 km/h (2 Bft) W-SW 14,0 C 23,3 C
11.09.2012 11:00 24,7 C 52 % 1011,5 hPa 0,0 l/m 11,6 km/h (2 Bft) W-SW 14,0 C 24,7 C
11.09.2012 12:00 22,3 C 61 % 1011,7 hPa 1,0 l/m 9,7 km/h (2 Bft) S-SW 14,2 C 22,3 C
11.09.2012 13:00 20,1 C 76 % 1010,9 hPa 0,0 l/m 4,5 km/h (1 Bft) S-SO 15,7 C 20,1 C
11.09.2012 14:00 21,5 C 72 % 1010,2 hPa 0,0 l/m 10,5 km/h (2 Bft) W-SW 16,3 C 21,5 C
11.09.2012 15:00 22,2 C 68 % 1009,7 hPa 0,0 l/m 13,3 km/h (3 Bft) W-SW 16,0 C 22,2 C
11.09.2012 16:00 22,9 C 66 % 1009,1 hPa 0,0 l/m 11,1 km/h (2 Bft) S-SW 16,2 C 22,9 C
11.09.2012 17:00 22,6 C 65 % 1008,5 hPa 0,0 l/m 10,1 km/h (2 Bft) W-SW 15,5 C 22,6 C
11.09.2012 18:00 21,5 C 68 % 1008,4 hPa 0,0 l/m 7,6 km/h (2 Bft) SW 15,3 C 21,5 C
11.09.2012 19:00 20,7 C 70 % 1008,3 hPa 0,0 l/m 2,0 km/h (1 Bft) S-SW 15,1 C 20,7 C
11.09.2012 20:00 17,6 C 80 % 1010,0 hPa 14,5 l/m 7,6 km/h (2 Bft) W 14,0 C 17,6 C
11.09.2012 21:00 16,1 C 87 % 1010,3 hPa 0,5 l/m 8,2 km/h (2 Bft) NW 13,9 C 16,1 C
11.09.2012 22:00 15,7 C 87 % 1010,5 hPa 0,5 l/m 7,8 km/h (2 Bft) W-NW 13,5 C 15,7 C
11.09.2012 23:00 15,0 C 87 % 1010,9 hPa 0,0 l/m 6,9 km/h (2 Bft) NW 12,8 C 15,0 C
12.09.2012 00:00 14,4 C 87 % 1011,0 hPa 0,0 l/m 6,5 km/h (2 Bft) W-NW 12,3 C 14,4 C
12.09.2012 01:00 13,9 C 88 % 1011,0 hPa 0,0 l/m 5,0 km/h (1 Bft) W-NW 11,9 C 13,9 C
12.09.2012 02:00 13,3 C 88 % 1011,2 hPa 0,0 l/m 2,1 km/h (1 Bft) W 11,4 C 13,3 C
12.09.2012 03:00 12,7 C 88 % 1011,1 hPa 0,0 l/m 2,6 km/h (1 Bft) W-NW 10,8 C 12,7 C
12.09.2012 04:00 12,0 C 89 % 1011,0 hPa 0,0 l/m 3,8 km/h (1 Bft) W 10,3 C 12,0 C
12.09.2012 05:00 11,8 C 89 % 1011,1 hPa 0,0 l/m 3,8 km/h (1 Bft) W 10,0 C 11,8 C
12.09.2012 06:00 11,4 C 89 % 1011,1 hPa 0,0 l/m 2,8 km/h (1 Bft) W 9,7 C 11,4 C
12.09.2012 07:00 11,3 C 89 % 1011,6 hPa 0,0 l/m 5,4 km/h (1 Bft) W 9,5 C 11,3 C
12.09.2012 08:00 11,8 C 88 % 1011,8 hPa 0,0 l/m 5,8 km/h (2 Bft) W 9,8 C 11,8 C
12.09.2012 09:00 12,6 C 85 % 1011,8 hPa 0,0 l/m 6,8 km/h (2 Bft) W-NW 10,1 C 12,6 C
12.09.2012 10:00 13,8 C 80 % 1012,2 hPa 0,0 l/m 5,7 km/h (1 Bft) W-NW 10,3 C 13,8 C
12.09.2012 11:00 14,8 C 74 % 1012,3 hPa 0,0 l/m 5,7 km/h (1 Bft) W-SW 10,2 C 14,8 C
12.09.2012 12:00 16,1 C 67 % 1012,1 hPa 0,0 l/m 8,1 km/h (2 Bft) W-SW 10,0 C 16,1 C
12.09.2012 13:00 17,1 C 62 % 1011,7 hPa 0,0 l/m 10,9 km/h (2 Bft) W 9,7 C 17,1 C
12.09.2012 14:00 18,3 C 56 % 1011,3 hPa 0,0 l/m 10,6 km/h (2 Bft) W 9,5 C 18,3 C
12.09.2012 15:00 17,9 C 56 % 1011,1 hPa 0,0 l/m 10,9 km/h (2 Bft) W-SW 9,1 C 17,9 C
12.09.2012 16:00 17,5 C 56 % 1011,0 hPa 0,0 l/m 7,9 km/h (2 Bft) W-SW 8,7 C 17,5 C
12.09.2012 17:00 17,2 C 55 % 1011,0 hPa 0,0 l/m 9,6 km/h (2 Bft) W 8,0 C 17,2 C
12.09.2012 18:00 15,9 C 58 % 1011,2 hPa 0,0 l/m 7,9 km/h (2 Bft) W 7,8 C 15,9 C
12.09.2012 19:00 14,7 C 63 % 1011,5 hPa 0,0 l/m 7,4 km/h (2 Bft) W 7,8 C 14,7 C
12.09.2012 20:00 13,5 C 66 % 1012,0 hPa 0,0 l/m 3,1 km/h (1 Bft) W-SW 7,3 C 13,5 C
12.09.2012 21:00 12,7 C 72 % 1012,3 hPa 0,0 l/m 4,6 km/h (1 Bft) W-SW 7,8 C 12,7 C
12.09.2012 22:00 12,1 C 75 % 1012,3 hPa 0,0 l/m 3,5 km/h (1 Bft) W-NW 7,7 C 12,1 C
12.09.2012 23:00 11,1 C 78 % 1012,5 hPa 0,0 l/m 1,2 km/h (1 Bft) W 7,4 C 11,1 C
13.09.2012 00:00 10,0 C 80 % 1012,7 hPa 0,0 l/m 0,4 km/h (0 Bft) W-NW 6,8 C 10,0 C
13.09.2012 01:00 9,3 C 83 % 1012,8 hPa 0,0 l/m 1,0 km/h (0 Bft) W-NW 6,4 C 9,3 C
13.09.2012 02:00 8,8 C 84 % 1012,7 hPa 0,0 l/m 0,2 km/h (0 Bft) W-NW 6,3 C 8,8 C
13.09.2012 03:00 8,4 C 86 % 1013,1 hPa 0,0 l/m 0,3 km/h (0 Bft) W-NW 6,1 C 8,4 C
13.09.2012 04:00 7,9 C 87 % 1013,4 hPa 0,0 l/m 0,9 km/h (0 Bft) W-NW 5,9 C 7,9 C
13.09.2012 05:00 7,6 C 88 % 1013,6 hPa 0,0 l/m 1,8 km/h (1 Bft) W-NW 5,7 C 7,6 C
13.09.2012 06:00 7,3 C 88 % 1014,0 hPa 0,0 l/m 2,2 km/h (1 Bft) W-NW 5,5 C 7,3 C
13.09.2012 07:00 7,7 C 89 % 1014,4 hPa 0,0 l/m 1,9 km/h (1 Bft) W-NW 6,0 C 7,6 C
13.09.2012 08:00 9,7 C 87 % 1014,7 hPa 0,0 l/m 4,1 km/h (1 Bft) W 7,5 C 9,6 C
13.09.2012 09:00 11,7 C 81 % 1015,2 hPa 0,0 l/m 5,0 km/h (1 Bft) W-SW 8,6 C 11,7 C
13.09.2012 10:00 13,9 C 74 % 1015,9 hPa 0,0 l/m 4,2 km/h (1 Bft) W-NW 9,3 C 13,9 C
13.09.2012 11:00 15,6 C 65 % 1015,9 hPa 0,0 l/m 4,4 km/h (1 Bft) NW 9,0 C 15,6 C
13.09.2012 12:00 16,9 C 57 % 1016,0 hPa 0,0 l/m 5,8 km/h (2 Bft) W-NW 8,3 C 16,9 C
13.09.2012 13:00 17,9 C 54 % 1016,1 hPa 0,0 l/m 8,8 km/h (2 Bft) W 8,3 C 17,9 C
13.09.2012 14:00 17,6 C 55 % 1015,9 hPa 0,0 l/m 4,2 km/h (1 Bft) W-NW 8,5 C 17,6 C
13.09.2012 15:00 17,1 C 56 % 1015,9 hPa 0,0 l/m 4,0 km/h (1 Bft) W-SW 8,3 C 17,1 C
13.09.2012 16:00 17,3 C 56 % 1015,9 hPa 0,0 l/m 6,3 km/h (2 Bft) W-NW 8,3 C 17,3 C
13.09.2012 17:00 17,4 C 56 % 1016,1 hPa 0,0 l/m 5,1 km/h (1 Bft) W 8,5 C 17,4 C
13.09.2012 18:00 16,4 C 59 % 1016,3 hPa 0,0 l/m 3,5 km/h (1 Bft) W-SW 8,4 C 16,4 C
13.09.2012 19:00 15,5 C 64 % 1016,7 hPa 0,0 l/m 1,3 km/h (1 Bft) W-SW 8,6 C 15,5 C
13.09.2012 20:00 14,4 C 68 % 1017,1 hPa 0,0 l/m 0,6 km/h (0 Bft) N-NO 8,5 C 14,4 C
13.09.2012 21:00 13,5 C 72 % 1017,2 hPa 0,0 l/m 0,0 km/h (0 Bft) N 8,4 C 13,5 C
13.09.2012 22:00 13,0 C 75 % 1017,4 hPa 0,0 l/m 0,0 km/h (0 Bft) N 8,7 C 13,0 C
13.09.2012 23:00 12,7 C 77 % 1017,2 hPa 0,0 l/m 1,3 km/h (1 Bft) W-SW 8,7 C 12,7 C
14.09.2012 00:00 12,0 C 79 % 1016,9 hPa 0,0 l/m 1,3 km/h (1 Bft) S 8,5 C 12,0 C
14.09.2012 01:00 11,0 C 82 % 1016,5 hPa 0,0 l/m 0,5 km/h (0 Bft) SW 7,9 C 11,0 C
14.09.2012 02:00 10,2 C 84 % 1016,0 hPa 0,0 l/m 0,5 km/h (0 Bft) SW 7,5 C 10,2 C
14.09.2012 03:00 9,8 C 85 % 1015,6 hPa 0,0 l/m 2,4 km/h (1 Bft) S-SW 7,4 C 9,8 C
14.09.2012 04:00 9,7 C 86 % 1015,0 hPa 0,0 l/m 2,3 km/h (1 Bft) S-SO 7,5 C 9,7 C
14.09.2012 05:00 10,3 C 87 % 1014,5 hPa 0,0 l/m 4,1 km/h (1 Bft) W-SW 8,2 C 10,3 C
14.09.2012 06:00 10,8 C 87 % 1013,8 hPa 0,0 l/m 5,5 km/h (1 Bft) SW 8,7 C 10,8 C
14.09.2012 07:00 11,4 C 86 % 1013,5 hPa 0,0 l/m 7,1 km/h (2 Bft) SW 9,1 C 11,4 C
14.09.2012 08:00 12,2 C 84 % 1012,9 hPa 0,0 l/m 10,8 km/h (2 Bft) S 9,5 C 12,2 C
14.09.2012 09:00 13,6 C 79 % 1012,4 hPa 0,0 l/m 11,2 km/h (2 Bft) W-SW 10,0 C 13,6 C
14.09.2012 10:00 15,9 C 69 % 1011,6 hPa 0,0 l/m 20,3 km/h (4 Bft) W 10,2 C 15,9 C
14.09.2012 11:00 17,2 C 60 % 1011,0 hPa 0,0 l/m 14,9 km/h (3 Bft) W-SW 9,4 C 17,2 C
14.09.2012 12:00 17,8 C 55 % 1010,2 hPa 0,0 l/m 20,6 km/h (4 Bft) W-SW 8,8 C 17,8 C
14.09.2012 13:00 17,6 C 56 % 1009,3 hPa 0,0 l/m 15,2 km/h (3 Bft) W-SW 8,8 C 17,6 C
14.09.2012 14:00 18,6 C 54 % 1008,7 hPa 0,0 l/m 19,1 km/h (3 Bft) S-SW 9,2 C 18,6 C
14.09.2012 15:00 19,0 C 52 % 1007,8 hPa 0,0 l/m 17,2 km/h (3 Bft) W-SW 9,0 C 19,0 C
14.09.2012 16:00 18,4 C 54 % 1007,3 hPa 0,0 l/m 20,5 km/h (4 Bft) W-SW 8,9 C 18,4 C
14.09.2012 17:00 17,4 C 58 % 1007,0 hPa 0,0 l/m 19,8 km/h (4 Bft) W 9,0 C 17,4 C
14.09.2012 18:00 16,5 C 64 % 1007,1 hPa 0,0 l/m 18,8 km/h (3 Bft) W 9,6 C 16,5 C
14.09.2012 19:00 15,2 C 74 % 1007,1 hPa 0,0 l/m 19,1 km/h (3 Bft) W 10,5 C 15,2 C
14.09.2012 20:00 14,1 C 82 % 1007,3 hPa 0,0 l/m 16,4 km/h (3 Bft) SW 11,0 C 14,1 C
14.09.2012 21:00 13,6 C 84 % 1007,4 hPa 0,0 l/m 15,8 km/h (3 Bft) W-SW 10,9 C 13,6 C
14.09.2012 22:00 13,0 C 84 % 1008,0 hPa 0,0 l/m 11,7 km/h (2 Bft) W-SW 10,3 C 13,0 C
14.09.2012 23:00 12,9 C 85 % 1008,4 hPa 0,0 l/m 13,9 km/h (3 Bft) W-SW 10,4 C 12,9 C
15.09.2012 00:00 12,5 C 85 % 1008,7 hPa 0,0 l/m 11,8 km/h (2 Bft) W 9,9 C 12,5 C
15.09.2012 01:00 12,1 C 87 % 1009,2 hPa 0,0 l/m 10,2 km/h (2 Bft) W 10,0 C 12,1 C
15.09.2012 02:00 12,1 C 87 % 1009,8 hPa 0,0 l/m 10,6 km/h (2 Bft) W-SW 10,1 C 12,1 C
15.09.2012 03:00 11,7 C 87 % 1009,9 hPa 0,0 l/m 10,2 km/h (2 Bft) W-SW 9,7 C 11,7 C
15.09.2012 04:00 11,5 C 88 % 1010,1 hPa 0,0 l/m 14,7 km/h (3 Bft) W-SW 9,5 C 11,5 C
15.09.2012 05:00 11,5 C 88 % 1010,5 hPa 0,0 l/m 13,9 km/h (3 Bft) W-SW 9,6 C 11,5 C
15.09.2012 06:00 11,9 C 88 % 1011,0 hPa 0,0 l/m 11,9 km/h (2 Bft) W-SW 9,9 C 11,9 C
15.09.2012 07:00 11,9 C 87 % 1011,7 hPa 0,0 l/m 8,8 km/h (2 Bft) W 9,8 C 11,9 C
15.09.2012 08:00 12,5 C 86 % 1012,4 hPa 0,0 l/m 10,7 km/h (2 Bft) W 10,2 C 12,5 C
15.09.2012 09:00 13,7 C 83 % 1013,2 hPa 0,0 l/m 9,8 km/h (2 Bft) W-NW 10,9 C 13,7 C
15.09.2012 10:00 14,5 C 80 % 1014,0 hPa 0,0 l/m 12,4 km/h (3 Bft) W 11,2 C 14,5 C
15.09.2012 11:00 16,3 C 74 % 1014,3 hPa 0,0 l/m 8,8 km/h (2 Bft) W-NW 11,5 C 16,3 C
15.09.2012 12:00 17,0 C 68 % 1014,6 hPa 0,0 l/m 15,6 km/h (3 Bft) NW 11,1 C 17,0 C
15.09.2012 13:00 18,4 C 62 % 1014,6 hPa 0,0 l/m 15,7 km/h (3 Bft) W-NW 11,0 C 18,4 C
15.09.2012 14:00 18,2 C 61 % 1014,9 hPa 0,0 l/m 13,8 km/h (3 Bft) W 10,5 C 18,2 C
15.09.2012 15:00 17,6 C 63 % 1015,4 hPa 0,0 l/m 12,8 km/h (3 Bft) NW 10,5 C 17,6 C
15.09.2012 16:00 17,6 C 63 % 1015,5 hPa 0,0 l/m 11,3 km/h (2 Bft) W-NW 10,5 C 17,6 C
15.09.2012 17:00 17,2 C 65 % 1015,9 hPa 0,0 l/m 8,8 km/h (2 Bft) W 10,5 C 17,2 C
15.09.2012 18:00 16,4 C 69 % 1016,4 hPa 0,0 l/m 8,7 km/h (2 Bft) W-SW 10,6 C 16,4 C
15.09.2012 19:00 15,9 C 72 % 1016,7 hPa 0,0 l/m 4,5 km/h (1 Bft) W 10,9 C 15,9 C
15.09.2012 20:00 15,6 C 75 % 1017,3 hPa 0,0 l/m 2,6 km/h (1 Bft) W 11,1 C 15,6 C
15.09.2012 21:00 15,3 C 77 % 1017,2 hPa 0,0 l/m 4,0 km/h (1 Bft) W-SW 11,2 C 15,3 C
15.09.2012 22:00 15,2 C 77 % 1017,4 hPa 0,0 l/m 6,5 km/h (2 Bft) W-SW 11,2 C 15,2 C
15.09.2012 23:00 15,2 C 76 % 1017,7 hPa 0,0 l/m 6,6 km/h (2 Bft) W-SW 11,0 C 15,2 C
16.09.2012 00:00 15,0 C 76 % 1017,8 hPa 0,5 l/m 6,7 km/h (2 Bft) W-SW 10,9 C 15,0 C
16.09.2012 01:00 14,9 C 77 % 1018,0 hPa 0,0 l/m 6,6 km/h (2 Bft) W-SW 10,9 C 14,9 C
16.09.2012 02:00 14,9 C 78 % 1018,0 hPa 0,0 l/m 2,6 km/h (1 Bft) SW 11,0 C 14,9 C
16.09.2012 03:00 14,8 C 78 % 1017,9 hPa 0,0 l/m 4,2 km/h (1 Bft) SW 11,0 C 14,8 C
16.09.2012 04:00 14,5 C 78 % 1017,9 hPa 0,0 l/m 4,5 km/h (1 Bft) W-SW 10,7 C 14,5 C
16.09.2012 05:00 13,2 C 81 % 1017,8 hPa 0,0 l/m 2,9 km/h (1 Bft) W-SW 9,9 C 13,2 C
16.09.2012 06:00 12,0 C 83 % 1017,8 hPa 0,0 l/m 0,8 km/h (0 Bft) S-SW 9,2 C 12,0 C
16.09.2012 07:00 11,8 C 85 % 1017,8 hPa 0,0 l/m 3,4 km/h (1 Bft) S-SO 9,3 C 11,8 C
16.09.2012 08:00 13,2 C 84 % 1017,8 hPa 0,0 l/m 2,1 km/h (1 Bft) S-SW 10,5 C 13,2 C
16.09.2012 09:00 14,7 C 79 % 1017,8 hPa 0,0 l/m 4,2 km/h (1 Bft) S-SW 11,1 C 14,7 C
16.09.2012 10:00 17,2 C 70 % 1017,8 hPa 0,0 l/m 5,7 km/h (1 Bft) S-SO 11,8 C 17,2 C
16.09.2012 11:00 19,0 C 61 % 1017,5 hPa 0,0 l/m 8,0 km/h (2 Bft) W-SW 11,3 C 19,0 C
16.09.2012 12:00 20,0 C 55 % 1016,9 hPa 0,0 l/m 9,4 km/h (2 Bft) SW 10,7 C 20,0 C
16.09.2012 13:00 20,8 C 53 % 1016,4 hPa 0,0 l/m 12,1 km/h (2 Bft) W-SW 10,9 C 20,8 C
16.09.2012 14:00 22,0 C 49 % 1015,7 hPa 0,0 l/m 11,6 km/h (2 Bft) S-SW 10,8 C 22,0 C
16.09.2012 15:00 22,6 C 46 % 1015,1 hPa 0,0 l/m 10,4 km/h (2 Bft) W-SW 10,6 C 22,6 C
16.09.2012 16:00 22,9 C 45 % 1014,4 hPa 0,0 l/m 9,9 km/h (2 Bft) SW 10,4 C 22,9 C
16.09.2012 17:00 22,7 C 45 % 1013,9 hPa 0,0 l/m 6,5 km/h (2 Bft) SW 10,2 C 22,7 C
16.09.2012 18:00 21,4 C 49 % 1013,7 hPa 0,0 l/m 3,9 km/h (1 Bft) S-SW 10,2 C 21,4 C
16.09.2012 19:00 19,0 C 55 % 1013,6 hPa 0,0 l/m 2,0 km/h (1 Bft) S-SO 9,7 C 19,0 C
16.09.2012 20:00 16,6 C 62 % 1013,6 hPa 0,0 l/m 1,0 km/h (0 Bft) S-SO 9,2 C 16,6 C
16.09.2012 21:00 15,0 C 66 % 1013,3 hPa 0,0 l/m 1,4 km/h (1 Bft) SO 8,8 C 15,0 C
16.09.2012 22:00 14,0 C 69 % 1013,3 hPa 0,0 l/m 1,0 km/h (0 Bft) S-SO 8,5 C 14,0 C
16.09.2012 23:00 13,3 C 75 % 1013,2 hPa 0,0 l/m 2,1 km/h (1 Bft) S-SO 8,9 C 13,3 C
Min-Datum _ 13.09.12 10.09.12 14.09.12 - 10.09.12 - 13.09.12 13.09.12
_ Min-Zeit 06:41 15:21 17:51 - 00:01 - 06:41 07:11
Minimum _ 7,2 C 29 % 1006,8 hPa - 0,0 km/h (0 Bft) - 5,3 C 6,7 C
Max-Datum _ 10.09.12 10.09.12 16.09.12 11.09.12 14.09.12 - 11.09.12 10.09.12
_ Max-Zeit 15:36 05:46 01:51 20:11 19:06 - 14:36 15:36
Maximum _ 30,4 C 89 % 1018,2 hPa 14,5 l/m 41,0 km/h
W (6 Bft)
- 16,8 C 30,4 C
Durchschnitt _ 16,1 C 71 % 1013,2 hPa #17,1 l/m 6,4 km/h (2 Bft) W-SW 10,4 C 16,1 C
(c) by David Heller